sensor_id;sensor_type;location;lat;lon;timestamp;temperature;humidity
13806;DHT22;6974;53.606;9.872;2023-07-22T00:02:01;16.50;99.90
13806;DHT22;6974;53.606;9.872;2023-07-22T00:04:28;16.50;99.90
13806;DHT22;6974;53.606;9.872;2023-07-22T00:06:54;16.50;99.90
13806;DHT22;6974;53.606;9.872;2023-07-22T00:09:23;16.50;99.90
13806;DHT22;6974;53.606;9.872;2023-07-22T00:11:50;16.50;99.90
13806;DHT22;6974;53.606;9.872;2023-07-22T00:14:16;16.40;99.90
13806;DHT22;6974;53.606;9.872;2023-07-22T00:16:43;16.50;99.90
13806;DHT22;6974;53.606;9.872;2023-07-22T00:19:10;16.40;99.90
13806;DHT22;6974;53.606;9.872;2023-07-22T00:21:39;16.40;99.90
13806;DHT22;6974;53.606;9.872;2023-07-22T00:24:06;16.40;99.90
13806;DHT22;6974;53.606;9.872;2023-07-22T00:26:35;16.30;99.90
13806;DHT22;6974;53.606;9.872;2023-07-22T00:29:01;16.30;99.90
13806;DHT22;6974;53.606;9.872;2023-07-22T00:31:30;16.30;99.90
13806;DHT22;6974;53.606;9.872;2023-07-22T00:33:57;16.30;99.90
13806;DHT22;6974;53.606;9.872;2023-07-22T00:36:24;16.30;99.90
13806;DHT22;6974;53.606;9.872;2023-07-22T00:38:50;16.20;99.90
13806;DHT22;6974;53.606;9.872;2023-07-22T00:41:18;16.30;99.90
13806;DHT22;6974;53.606;9.872;2023-07-22T00:43:46;16.30;99.90
13806;DHT22;6974;53.606;9.872;2023-07-22T00:46:13;16.20;99.90
13806;DHT22;6974;53.606;9.872;2023-07-22T00:48:40;16.20;99.90
13806;DHT22;6974;53.606;9.872;2023-07-22T00:51:07;16.20;99.90
13806;DHT22;6974;53.606;9.872;2023-07-22T00:53:34;16.20;99.90
13806;DHT22;6974;53.606;9.872;2023-07-22T00:56:01;16.20;99.90
13806;DHT22;6974;53.606;9.872;2023-07-22T00:58:27;16.20;99.90
13806;DHT22;6974;53.606;9.872;2023-07-22T01:00:56;16.20;99.90
13806;DHT22;6974;53.606;9.872;2023-07-22T01:03:22;16.20;99.90
13806;DHT22;6974;53.606;9.872;2023-07-22T01:05:51;16.20;99.90
13806;DHT22;6974;53.606;9.872;2023-07-22T01:08:20;16.20;99.90
13806;DHT22;6974;53.606;9.872;2023-07-22T01:10:47;16.20;99.90
13806;DHT22;6974;53.606;9.872;2023-07-22T01:13:14;16.20;99.90
13806;DHT22;6974;53.606;9.872;2023-07-22T01:15:41;16.20;99.90
13806;DHT22;6974;53.606;9.872;2023-07-22T01:18:10;16.10;99.90
13806;DHT22;6974;53.606;9.872;2023-07-22T01:20:37;16.10;99.90
13806;DHT22;6974;53.606;9.872;2023-07-22T01:23:06;16.10;99.90
13806;DHT22;6974;53.606;9.872;2023-07-22T01:25:33;16.10;99.90
13806;DHT22;6974;53.606;9.872;2023-07-22T01:28:00;16.10;99.90
13806;DHT22;6974;53.606;9.872;2023-07-22T01:30:27;16.10;99.90
13806;DHT22;6974;53.606;9.872;2023-07-22T01:32:54;16.00;99.90
13806;DHT22;6974;53.606;9.872;2023-07-22T01:35:20;16.00;99.90
13806;DHT22;6974;53.606;9.872;2023-07-22T01:37:47;16.00;99.90
13806;DHT22;6974;53.606;9.872;2023-07-22T01:40:17;16.00;99.90
13806;DHT22;6974;53.606;9.872;2023-07-22T01:42:44;16.00;99.90
13806;DHT22;6974;53.606;9.872;2023-07-22T01:45:10;16.00;99.90
13806;DHT22;6974;53.606;9.872;2023-07-22T01:47:39;16.00;99.90
13806;DHT22;6974;53.606;9.872;2023-07-22T01:50:06;15.90;99.90
13806;DHT22;6974;53.606;9.872;2023-07-22T01:52:33;15.90;99.90
13806;DHT22;6974;53.606;9.872;2023-07-22T01:55:01;15.90;99.90
13806;DHT22;6974;53.606;9.872;2023-07-22T01:57:32;15.80;99.90
13806;DHT22;6974;53.606;9.872;2023-07-22T01:59:59;15.80;99.90
13806;DHT22;6974;53.606;9.872;2023-07-22T02:02:26;15.80;99.90
13806;DHT22;6974;53.606;9.872;2023-07-22T02:04:53;15.80;99.90
13806;DHT22;6974;53.606;9.872;2023-07-22T02:07:20;15.80;99.90
13806;DHT22;6974;53.606;9.872;2023-07-22T02:09:47;15.80;99.90
13806;DHT22;6974;53.606;9.872;2023-07-22T02:12:17;15.80;99.90
13806;DHT22;6974;53.606;9.872;2023-07-22T02:14:45;15.80;99.90
13806;DHT22;6974;53.606;9.872;2023-07-22T02:17:12;15.70;99.90
13806;DHT22;6974;53.606;9.872;2023-07-22T02:19:39;15.70;99.90
13806;DHT22;6974;53.606;9.872;2023-07-22T02:22:06;15.70;99.90
13806;DHT22;6974;53.606;9.872;2023-07-22T02:24:32;15.70;99.90
13806;DHT22;6974;53.606;9.872;2023-07-22T02:27:00;15.70;99.90
13806;DHT22;6974;53.606;9.872;2023-07-22T02:29:26;15.70;99.90
13806;DHT22;6974;53.606;9.872;2023-07-22T02:31:55;15.70;99.90
13806;DHT22;6974;53.606;9.872;2023-07-22T02:34:21;15.60;99.90
13806;DHT22;6974;53.606;9.872;2023-07-22T02:36:48;15.60;99.90
13806;DHT22;6974;53.606;9.872;2023-07-22T02:39:15;15.60;99.90
13806;DHT22;6974;53.606;9.872;2023-07-22T02:41:42;15.60;99.90
13806;DHT22;6974;53.606;9.872;2023-07-22T02:44:09;15.60;99.90
13806;DHT22;6974;53.606;9.872;2023-07-22T02:46:36;15.60;99.90
13806;DHT22;6974;53.606;9.872;2023-07-22T02:49:04;15.60;99.90
13806;DHT22;6974;53.606;9.872;2023-07-22T02:51:30;15.50;99.90
13806;DHT22;6974;53.606;9.872;2023-07-22T02:53:57;15.50;99.90
13806;DHT22;6974;53.606;9.872;2023-07-22T02:56:24;15.50;99.90
13806;DHT22;6974;53.606;9.872;2023-07-22T02:58:51;15.60;99.90
13806;DHT22;6974;53.606;9.872;2023-07-22T03:01:18;15.60;99.90
13806;DHT22;6974;53.606;9.872;2023-07-22T03:03:45;15.60;99.90
13806;DHT22;6974;53.606;9.872;2023-07-22T03:06:14;15.60;99.90
13806;DHT22;6974;53.606;9.872;2023-07-22T03:08:41;15.60;99.90
13806;DHT22;6974;53.606;9.872;2023-07-22T03:11:08;15.50;99.90
13806;DHT22;6974;53.606;9.872;2023-07-22T03:13:35;15.60;99.90
13806;DHT22;6974;53.606;9.872;2023-07-22T03:16:02;15.60;99.90
13806;DHT22;6974;53.606;9.872;2023-07-22T03:18:29;15.60;99.90
13806;DHT22;6974;53.606;9.872;2023-07-22T03:20:56;15.60;99.90
13806;DHT22;6974;53.606;9.872;2023-07-22T03:23:24;15.60;99.90
13806;DHT22;6974;53.606;9.872;2023-07-22T03:25:51;15.60;99.90
13806;DHT22;6974;53.606;9.872;2023-07-22T03:28:18;15.50;99.90
13806;DHT22;6974;53.606;9.872;2023-07-22T03:30:45;15.50;99.90
13806;DHT22;6974;53.606;9.872;2023-07-22T03:33:12;15.50;99.90
13806;DHT22;6974;53.606;9.872;2023-07-22T03:35:40;15.50;99.90
13806;DHT22;6974;53.606;9.872;2023-07-22T03:38:07;15.40;99.90
13806;DHT22;6974;53.606;9.872;2023-07-22T03:40:35;15.40;99.90
13806;DHT22;6974;53.606;9.872;2023-07-22T03:43:03;15.40;99.90
13806;DHT22;6974;53.606;9.872;2023-07-22T03:45:30;15.40;99.90
13806;DHT22;6974;53.606;9.872;2023-07-22T03:47:59;15.40;99.90
13806;DHT22;6974;53.606;9.872;2023-07-22T03:50:26;15.40;99.90
13806;DHT22;6974;53.606;9.872;2023-07-22T03:52:53;15.40;99.90
13806;DHT22;6974;53.606;9.872;2023-07-22T03:55:20;15.40;99.90
13806;DHT22;6974;53.606;9.872;2023-07-22T03:57:48;15.40;99.90
13806;DHT22;6974;53.606;9.872;2023-07-22T04:00:15;15.40;99.90
13806;DHT22;6974;53.606;9.872;2023-07-22T04:02:42;15.50;99.90
13806;DHT22;6974;53.606;9.872;2023-07-22T04:05:09;15.50;99.90
13806;DHT22;6974;53.606;9.872;2023-07-22T04:07:36;15.50;99.90
13806;DHT22;6974;53.606;9.872;2023-07-22T04:10:04;15.40;99.90
13806;DHT22;6974;53.606;9.872;2023-07-22T04:12:31;15.40;99.90
13806;DHT22;6974;53.606;9.872;2023-07-22T04:14:59;15.50;99.90
13806;DHT22;6974;53.606;9.872;2023-07-22T04:17:26;15.50;99.90
13806;DHT22;6974;53.606;9.872;2023-07-22T04:19:53;15.50;99.90
13806;DHT22;6974;53.606;9.872;2023-07-22T04:22:20;15.50;99.90
13806;DHT22;6974;53.606;9.872;2023-07-22T04:24:47;15.50;99.90
13806;DHT22;6974;53.606;9.872;2023-07-22T04:27:16;15.60;99.90
13806;DHT22;6974;53.606;9.872;2023-07-22T04:29:43;15.60;99.90
13806;DHT22;6974;53.606;9.872;2023-07-22T04:32:11;15.50;99.90
13806;DHT22;6974;53.606;9.872;2023-07-22T04:34:38;15.60;99.90
13806;DHT22;6974;53.606;9.872;2023-07-22T04:37:06;15.50;99.90
13806;DHT22;6974;53.606;9.872;2023-07-22T04:39:33;15.60;99.90
13806;DHT22;6974;53.606;9.872;2023-07-22T04:41:59;15.60;99.90
13806;DHT22;6974;53.606;9.872;2023-07-22T04:44:27;15.60;99.90
13806;DHT22;6974;53.606;9.872;2023-07-22T04:46:54;15.60;99.90
13806;DHT22;6974;53.606;9.872;2023-07-22T04:49:22;15.60;99.90
13806;DHT22;6974;53.606;9.872;2023-07-22T04:51:49;15.60;99.90
13806;DHT22;6974;53.606;9.872;2023-07-22T04:54:16;15.60;99.90
13806;DHT22;6974;53.606;9.872;2023-07-22T04:56:43;15.60;99.90
13806;DHT22;6974;53.606;9.872;2023-07-22T04:59:10;15.60;99.90
13806;DHT22;6974;53.606;9.872;2023-07-22T05:01:39;15.70;99.90
13806;DHT22;6974;53.606;9.872;2023-07-22T05:04:05;15.70;99.90
13806;DHT22;6974;53.606;9.872;2023-07-22T05:06:34;15.80;99.90
13806;DHT22;6974;53.606;9.872;2023-07-22T05:09:01;15.80;99.90
13806;DHT22;6974;53.606;9.872;2023-07-22T05:11:28;15.90;99.90
13806;DHT22;6974;53.606;9.872;2023-07-22T05:13:55;15.80;99.90
13806;DHT22;6974;53.606;9.872;2023-07-22T05:16:22;15.90;99.90
13806;DHT22;6974;53.606;9.872;2023-07-22T05:21:17;15.80;99.90
13806;DHT22;6974;53.606;9.872;2023-07-22T05:23:45;15.80;99.90
13806;DHT22;6974;53.606;9.872;2023-07-22T05:26:12;15.80;99.90
13806;DHT22;6974;53.606;9.872;2023-07-22T05:28:40;15.80;99.90
13806;DHT22;6974;53.606;9.872;2023-07-22T05:31:07;15.80;99.90
13806;DHT22;6974;53.606;9.872;2023-07-22T05:33:34;15.90;99.90
13806;DHT22;6974;53.606;9.872;2023-07-22T05:36:01;15.90;99.90
13806;DHT22;6974;53.606;9.872;2023-07-22T05:38:28;15.90;99.90
13806;DHT22;6974;53.606;9.872;2023-07-22T05:40:58;16.00;99.90
13806;DHT22;6974;53.606;9.872;2023-07-22T05:43:25;16.00;99.90
13806;DHT22;6974;53.606;9.872;2023-07-22T05:45:54;16.00;99.90
13806;DHT22;6974;53.606;9.872;2023-07-22T05:48:21;16.10;99.90
13806;DHT22;6974;53.606;9.872;2023-07-22T05:50:48;16.10;99.90
13806;DHT22;6974;53.606;9.872;2023-07-22T05:53:15;16.20;99.90
13806;DHT22;6974;53.606;9.872;2023-07-22T05:55:42;16.20;99.90
13806;DHT22;6974;53.606;9.872;2023-07-22T05:58:17;16.20;99.90
13806;DHT22;6974;53.606;9.872;2023-07-22T06:00:44;16.30;99.90
13806;DHT22;6974;53.606;9.872;2023-07-22T06:03:11;16.20;99.90
13806;DHT22;6974;53.606;9.872;2023-07-22T06:05:38;16.20;99.90
13806;DHT22;6974;53.606;9.872;2023-07-22T06:08:05;16.30;99.90
13806;DHT22;6974;53.606;9.872;2023-07-22T06:10:32;16.20;99.90
13806;DHT22;6974;53.606;9.872;2023-07-22T06:13:00;16.30;99.90
13806;DHT22;6974;53.606;9.872;2023-07-22T06:15:28;16.30;99.90
13806;DHT22;6974;53.606;9.872;2023-07-22T06:17:55;16.40;99.90
13806;DHT22;6974;53.606;9.872;2023-07-22T06:20:22;16.40;99.90
13806;DHT22;6974;53.606;9.872;2023-07-22T06:22:49;16.50;99.90
13806;DHT22;6974;53.606;9.872;2023-07-22T06:25:16;16.50;99.90
13806;DHT22;6974;53.606;9.872;2023-07-22T06:27:43;16.50;99.90
13806;DHT22;6974;53.606;9.872;2023-07-22T06:30:11;16.50;99.90
13806;DHT22;6974;53.606;9.872;2023-07-22T06:32:42;16.60;99.90
13806;DHT22;6974;53.606;9.872;2023-07-22T06:35:09;16.60;99.90
13806;DHT22;6974;53.606;9.872;2023-07-22T06:37:36;16.60;99.90
13806;DHT22;6974;53.606;9.872;2023-07-22T06:40:05;16.60;99.90
13806;DHT22;6974;53.606;9.872;2023-07-22T06:42:34;16.60;99.90
13806;DHT22;6974;53.606;9.872;2023-07-22T06:45:01;16.70;99.90
13806;DHT22;6974;53.606;9.872;2023-07-22T06:47:28;16.70;99.90
13806;DHT22;6974;53.606;9.872;2023-07-22T06:49:57;16.70;99.90
13806;DHT22;6974;53.606;9.872;2023-07-22T06:52:24;16.70;99.90
13806;DHT22;6974;53.606;9.872;2023-07-22T06:54:53;16.80;99.90
13806;DHT22;6974;53.606;9.872;2023-07-22T06:57:20;16.80;99.90
13806;DHT22;6974;53.606;9.872;2023-07-22T06:59:48;16.90;99.90
13806;DHT22;6974;53.606;9.872;2023-07-22T07:02:16;16.90;99.90
13806;DHT22;6974;53.606;9.872;2023-07-22T07:04:43;16.90;99.90
13806;DHT22;6974;53.606;9.872;2023-07-22T07:07:12;17.00;99.90
13806;DHT22;6974;53.606;9.872;2023-07-22T07:09:39;17.00;99.90
13806;DHT22;6974;53.606;9.872;2023-07-22T07:12:07;17.00;99.90
13806;DHT22;6974;53.606;9.872;2023-07-22T07:14:34;17.10;99.90
13806;DHT22;6974;53.606;9.872;2023-07-22T07:17:03;17.20;99.90
13806;DHT22;6974;53.606;9.872;2023-07-22T07:19:31;17.20;99.90
13806;DHT22;6974;53.606;9.872;2023-07-22T07:21:58;17.20;99.90
13806;DHT22;6974;53.606;9.872;2023-07-22T07:24:28;17.30;99.90
13806;DHT22;6974;53.606;9.872;2023-07-22T07:26:55;17.30;99.90
13806;DHT22;6974;53.606;9.872;2023-07-22T07:29:22;17.40;99.90
13806;DHT22;6974;53.606;9.872;2023-07-22T07:31:49;17.40;99.90
13806;DHT22;6974;53.606;9.872;2023-07-22T07:34:16;17.50;99.90
13806;DHT22;6974;53.606;9.872;2023-07-22T07:36:43;17.50;99.90
13806;DHT22;6974;53.606;9.872;2023-07-22T07:39:10;17.60;99.90
13806;DHT22;6974;53.606;9.872;2023-07-22T07:41:39;17.60;99.90
13806;DHT22;6974;53.606;9.872;2023-07-22T07:44:06;17.60;99.90
13806;DHT22;6974;53.606;9.872;2023-07-22T07:46:33;17.60;99.90
13806;DHT22;6974;53.606;9.872;2023-07-22T07:49:01;17.70;99.90
13806;DHT22;6974;53.606;9.872;2023-07-22T07:51:30;17.70;99.90
13806;DHT22;6974;53.606;9.872;2023-07-22T07:53:59;17.80;99.90
13806;DHT22;6974;53.606;9.872;2023-07-22T07:56:26;17.80;99.90
13806;DHT22;6974;53.606;9.872;2023-07-22T07:58:56;17.80;99.90
13806;DHT22;6974;53.606;9.872;2023-07-22T08:01:23;17.80;99.90
13806;DHT22;6974;53.606;9.872;2023-07-22T08:03:50;17.90;99.90
13806;DHT22;6974;53.606;9.872;2023-07-22T08:06:17;17.90;99.90
13806;DHT22;6974;53.606;9.872;2023-07-22T08:08:44;18.00;99.90
13806;DHT22;6974;53.606;9.872;2023-07-22T08:11:14;18.10;99.90
13806;DHT22;6974;53.606;9.872;2023-07-22T08:13:42;18.20;99.90
13806;DHT22;6974;53.606;9.872;2023-07-22T08:16:12;18.30;99.90
13806;DHT22;6974;53.606;9.872;2023-07-22T08:18:40;18.20;99.90
13806;DHT22;6974;53.606;9.872;2023-07-22T08:21:07;18.20;99.90
13806;DHT22;6974;53.606;9.872;2023-07-22T08:23:36;18.20;99.90
13806;DHT22;6974;53.606;9.872;2023-07-22T08:26:03;18.30;99.90
13806;DHT22;6974;53.606;9.872;2023-07-22T08:28:31;18.30;99.90
13806;DHT22;6974;53.606;9.872;2023-07-22T08:30:58;18.30;99.90
13806;DHT22;6974;53.606;9.872;2023-07-22T08:33:27;18.40;99.90
13806;DHT22;6974;53.606;9.872;2023-07-22T08:35:55;18.50;99.90
13806;DHT22;6974;53.606;9.872;2023-07-22T08:38:22;18.60;99.90
13806;DHT22;6974;53.606;9.872;2023-07-22T08:40:50;18.60;99.90
13806;DHT22;6974;53.606;9.872;2023-07-22T08:43:20;18.70;99.90
13806;DHT22;6974;53.606;9.872;2023-07-22T08:45:49;18.80;99.90
13806;DHT22;6974;53.606;9.872;2023-07-22T08:48:17;18.90;99.90
13806;DHT22;6974;53.606;9.872;2023-07-22T08:50:51;19.00;99.90
13806;DHT22;6974;53.606;9.872;2023-07-22T08:53:19;19.10;99.90
13806;DHT22;6974;53.606;9.872;2023-07-22T08:55:46;19.10;99.90
13806;DHT22;6974;53.606;9.872;2023-07-22T08:58:14;19.20;99.90
13806;DHT22;6974;53.606;9.872;2023-07-22T09:00:42;19.20;99.90
13806;DHT22;6974;53.606;9.872;2023-07-22T09:03:11;19.40;99.90
13806;DHT22;6974;53.606;9.872;2023-07-22T09:05:38;19.50;99.90
13806;DHT22;6974;53.606;9.872;2023-07-22T09:08:07;19.60;99.90
13806;DHT22;6974;53.606;9.872;2023-07-22T09:10:35;19.70;99.90
13806;DHT22;6974;53.606;9.872;2023-07-22T09:13:03;19.70;99.90
13806;DHT22;6974;53.606;9.872;2023-07-22T09:15:34;19.90;99.90
13806;DHT22;6974;53.606;9.872;2023-07-22T09:18:01;19.90;99.90
13806;DHT22;6974;53.606;9.872;2023-07-22T09:20:29;20.00;99.90
13806;DHT22;6974;53.606;9.872;2023-07-22T09:22:57;20.00;99.90
13806;DHT22;6974;53.606;9.872;2023-07-22T09:25:28;19.90;99.90
13806;DHT22;6974;53.606;9.872;2023-07-22T09:27:58;19.90;99.90
13806;DHT22;6974;53.606;9.872;2023-07-22T09:30:27;19.70;99.90
13806;DHT22;6974;53.606;9.872;2023-07-22T09:32:55;19.70;99.90
13806;DHT22;6974;53.606;9.872;2023-07-22T09:35:25;19.70;99.90
13806;DHT22;6974;53.606;9.872;2023-07-22T09:37:52;19.60;99.90
13806;DHT22;6974;53.606;9.872;2023-07-22T09:40:22;19.60;99.90
13806;DHT22;6974;53.606;9.872;2023-07-22T09:42:52;19.50;99.90
13806;DHT22;6974;53.606;9.872;2023-07-22T09:45:22;19.50;99.90
13806;DHT22;6974;53.606;9.872;2023-07-22T09:47:50;19.50;99.90
13806;DHT22;6974;53.606;9.872;2023-07-22T09:50:18;19.70;99.90
13806;DHT22;6974;53.606;9.872;2023-07-22T09:52:50;20.00;99.90
13806;DHT22;6974;53.606;9.872;2023-07-22T09:55:19;20.20;99.90
13806;DHT22;6974;53.606;9.872;2023-07-22T09:57:49;20.30;99.90
13806;DHT22;6974;53.606;9.872;2023-07-22T10:00:19;20.40;99.90
13806;DHT22;6974;53.606;9.872;2023-07-22T10:02:47;20.60;99.90
13806;DHT22;6974;53.606;9.872;2023-07-22T10:05:16;20.70;99.90
13806;DHT22;6974;53.606;9.872;2023-07-22T10:07:46;20.70;99.90
13806;DHT22;6974;53.606;9.872;2023-07-22T10:10:15;20.70;99.90
13806;DHT22;6974;53.606;9.872;2023-07-22T10:12:44;20.80;99.90
13806;DHT22;6974;53.606;9.872;2023-07-22T10:15:12;20.90;99.90
13806;DHT22;6974;53.606;9.872;2023-07-22T10:17:42;21.00;99.90
13806;DHT22;6974;53.606;9.872;2023-07-22T10:20:10;21.20;99.90
13806;DHT22;6974;53.606;9.872;2023-07-22T10:22:41;21.20;99.90
13806;DHT22;6974;53.606;9.872;2023-07-22T10:25:10;21.10;99.90
13806;DHT22;6974;53.606;9.872;2023-07-22T10:27:38;21.10;99.90
13806;DHT22;6974;53.606;9.872;2023-07-22T10:30:07;21.30;99.90
13806;DHT22;6974;53.606;9.872;2023-07-22T10:32:36;21.40;99.90
13806;DHT22;6974;53.606;9.872;2023-07-22T10:35:08;21.60;99.90
13806;DHT22;6974;53.606;9.872;2023-07-22T10:37:37;21.90;99.90
13806;DHT22;6974;53.606;9.872;2023-07-22T10:40:17;22.00;99.90
13806;DHT22;6974;53.606;9.872;2023-07-22T10:42:53;22.20;99.90
13806;DHT22;6974;53.606;9.872;2023-07-22T10:45:25;22.30;99.90
13806;DHT22;6974;53.606;9.872;2023-07-22T10:48:05;22.40;99.90
13806;DHT22;6974;53.606;9.872;2023-07-22T10:50:41;22.40;99.90
13806;DHT22;6974;53.606;9.872;2023-07-22T10:53:10;22.50;99.90
13806;DHT22;6974;53.606;9.872;2023-07-22T10:56:03;22.60;99.90
13806;DHT22;6974;53.606;9.872;2023-07-22T10:58:31;22.60;99.90
13806;DHT22;6974;53.606;9.872;2023-07-22T11:01:24;22.60;99.90
13806;DHT22;6974;53.606;9.872;2023-07-22T11:04:06;22.50;99.90
13806;DHT22;6974;53.606;9.872;2023-07-22T11:06:35;22.30;99.90
13806;DHT22;6974;53.606;9.872;2023-07-22T11:09:02;22.20;99.90
13806;DHT22;6974;53.606;9.872;2023-07-22T11:11:38;22.30;99.90
13806;DHT22;6974;53.606;9.872;2023-07-22T11:14:15;22.40;99.90
13806;DHT22;6974;53.606;9.872;2023-07-22T11:16:44;22.20;99.90
13806;DHT22;6974;53.606;9.872;2023-07-22T11:19:13;22.20;99.90
13806;DHT22;6974;53.606;9.872;2023-07-22T11:21:42;22.10;99.90
13806;DHT22;6974;53.606;9.872;2023-07-22T11:24:09;21.90;99.90
13806;DHT22;6974;53.606;9.872;2023-07-22T11:26:37;21.90;99.90
13806;DHT22;6974;53.606;9.872;2023-07-22T11:29:06;21.80;99.90
13806;DHT22;6974;53.606;9.872;2023-07-22T11:31:35;21.80;99.90
13806;DHT22;6974;53.606;9.872;2023-07-22T11:34:03;21.70;99.90
13806;DHT22;6974;53.606;9.872;2023-07-22T11:36:31;21.80;99.90
13806;DHT22;6974;53.606;9.872;2023-07-22T11:39:03;21.80;99.90
13806;DHT22;6974;53.606;9.872;2023-07-22T11:41:32;22.00;99.90
13806;DHT22;6974;53.606;9.872;2023-07-22T11:43:59;22.20;99.90
13806;DHT22;6974;53.606;9.872;2023-07-22T11:46:27;22.30;99.90
13806;DHT22;6974;53.606;9.872;2023-07-22T11:48:55;22.40;99.90
13806;DHT22;6974;53.606;9.872;2023-07-22T11:51:23;22.50;99.90
13806;DHT22;6974;53.606;9.872;2023-07-22T11:53:53;22.80;99.90
13806;DHT22;6974;53.606;9.872;2023-07-22T11:56:26;23.00;99.90
13806;DHT22;6974;53.606;9.872;2023-07-22T11:58:55;23.10;99.90
13806;DHT22;6974;53.606;9.872;2023-07-22T12:01:23;23.20;99.90
13806;DHT22;6974;53.606;9.872;2023-07-22T12:03:55;23.20;99.90
13806;DHT22;6974;53.606;9.872;2023-07-22T12:06:25;23.10;99.90
13806;DHT22;6974;53.606;9.872;2023-07-22T12:08:54;23.00;99.90
13806;DHT22;6974;53.606;9.872;2023-07-22T12:11:22;22.90;99.90
13806;DHT22;6974;53.606;9.872;2023-07-22T12:14:04;23.00;99.90
13806;DHT22;6974;53.606;9.872;2023-07-22T12:16:32;23.10;99.90
13806;DHT22;6974;53.606;9.872;2023-07-22T12:19:01;23.00;99.90
13806;DHT22;6974;53.606;9.872;2023-07-22T12:21:28;22.90;99.90
13806;DHT22;6974;53.606;9.872;2023-07-22T12:23:55;22.70;99.90
13806;DHT22;6974;53.606;9.872;2023-07-22T12:26:22;22.40;99.90
13806;DHT22;6974;53.606;9.872;2023-07-22T12:28:51;22.20;99.90
13806;DHT22;6974;53.606;9.872;2023-07-22T12:31:18;22.00;99.90
13806;DHT22;6974;53.606;9.872;2023-07-22T12:33:45;21.80;99.90
13806;DHT22;6974;53.606;9.872;2023-07-22T12:36:12;21.50;99.90
13806;DHT22;6974;53.606;9.872;2023-07-22T12:38:39;21.40;99.90
13806;DHT22;6974;53.606;9.872;2023-07-22T12:41:07;21.30;99.90
13806;DHT22;6974;53.606;9.872;2023-07-22T12:43:34;21.20;99.90
13806;DHT22;6974;53.606;9.872;2023-07-22T12:46:04;21.10;99.90
13806;DHT22;6974;53.606;9.872;2023-07-22T12:48:31;21.00;99.90
13806;DHT22;6974;53.606;9.872;2023-07-22T12:50:59;20.90;99.90
13806;DHT22;6974;53.606;9.872;2023-07-22T12:53:26;20.80;99.90
13806;DHT22;6974;53.606;9.872;2023-07-22T12:55:53;20.80;99.90
13806;DHT22;6974;53.606;9.872;2023-07-22T12:58:21;20.70;99.90
13806;DHT22;6974;53.606;9.872;2023-07-22T13:00:48;20.50;99.90
13806;DHT22;6974;53.606;9.872;2023-07-22T13:03:17;20.50;99.90
13806;DHT22;6974;53.606;9.872;2023-07-22T13:05:44;20.40;99.90
13806;DHT22;6974;53.606;9.872;2023-07-22T13:08:11;20.30;99.90
13806;DHT22;6974;53.606;9.872;2023-07-22T13:10:40;20.10;99.90
13806;DHT22;6974;53.606;9.872;2023-07-22T13:13:10;20.10;99.90
13806;DHT22;6974;53.606;9.872;2023-07-22T13:15:37;20.10;99.90
13806;DHT22;6974;53.606;9.872;2023-07-22T13:18:04;20.00;99.90
13806;DHT22;6974;53.606;9.872;2023-07-22T13:20:33;19.90;99.90
13806;DHT22;6974;53.606;9.872;2023-07-22T13:23:01;19.90;99.90
13806;DHT22;6974;53.606;9.872;2023-07-22T13:25:27;19.90;99.90
13806;DHT22;6974;53.606;9.872;2023-07-22T13:27:55;19.90;99.90
13806;DHT22;6974;53.606;9.872;2023-07-22T13:30:22;19.90;99.90
13806;DHT22;6974;53.606;9.872;2023-07-22T13:32:49;19.90;99.90
13806;DHT22;6974;53.606;9.872;2023-07-22T13:35:18;19.90;99.90
13806;DHT22;6974;53.606;9.872;2023-07-22T13:37:47;19.90;99.90
13806;DHT22;6974;53.606;9.872;2023-07-22T13:40:14;19.90;99.90
13806;DHT22;6974;53.606;9.872;2023-07-22T13:42:41;19.80;99.90
13806;DHT22;6974;53.606;9.872;2023-07-22T13:45:09;19.80;99.90
13806;DHT22;6974;53.606;9.872;2023-07-22T13:47:36;19.80;99.90
13806;DHT22;6974;53.606;9.872;2023-07-22T13:50:03;19.80;99.90
13806;DHT22;6974;53.606;9.872;2023-07-22T13:52:31;19.80;99.90
13806;DHT22;6974;53.606;9.872;2023-07-22T13:54:59;19.80;99.90
13806;DHT22;6974;53.606;9.872;2023-07-22T13:57:27;19.80;99.90
13806;DHT22;6974;53.606;9.872;2023-07-22T13:59:55;19.80;99.90
13806;DHT22;6974;53.606;9.872;2023-07-22T14:02:22;19.80;99.90
13806;DHT22;6974;53.606;9.872;2023-07-22T14:04:51;19.80;99.90
13806;DHT22;6974;53.606;9.872;2023-07-22T14:07:18;19.90;99.90
13806;DHT22;6974;53.606;9.872;2023-07-22T14:09:45;19.80;99.90
13806;DHT22;6974;53.606;9.872;2023-07-22T14:12:14;19.80;99.90
13806;DHT22;6974;53.606;9.872;2023-07-22T14:14:42;19.80;99.90
13806;DHT22;6974;53.606;9.872;2023-07-22T14:17:09;19.80;99.90
13806;DHT22;6974;53.606;9.872;2023-07-22T14:19:36;19.80;99.90
13806;DHT22;6974;53.606;9.872;2023-07-22T14:22:04;19.80;99.90
13806;DHT22;6974;53.606;9.872;2023-07-22T14:24:31;19.90;99.90
13806;DHT22;6974;53.606;9.872;2023-07-22T14:26:59;20.10;99.90
13806;DHT22;6974;53.606;9.872;2023-07-22T14:29:28;20.10;99.90
13806;DHT22;6974;53.606;9.872;2023-07-22T14:31:56;20.10;99.90
13806;DHT22;6974;53.606;9.872;2023-07-22T14:34:24;20.10;99.90
13806;DHT22;6974;53.606;9.872;2023-07-22T14:36:51;20.00;99.90
13806;DHT22;6974;53.606;9.872;2023-07-22T14:39:18;20.00;99.90
13806;DHT22;6974;53.606;9.872;2023-07-22T14:41:45;19.90;99.90
13806;DHT22;6974;53.606;9.872;2023-07-22T14:44:13;19.90;99.90
13806;DHT22;6974;53.606;9.872;2023-07-22T14:46:41;19.80;99.90
13806;DHT22;6974;53.606;9.872;2023-07-22T14:49:09;19.90;99.90
13806;DHT22;6974;53.606;9.872;2023-07-22T14:51:36;19.80;99.90
13806;DHT22;6974;53.606;9.872;2023-07-22T14:54:03;19.80;99.90
13806;DHT22;6974;53.606;9.872;2023-07-22T14:56:31;19.70;99.90
13806;DHT22;6974;53.606;9.872;2023-07-22T14:58:58;19.70;99.90
13806;DHT22;6974;53.606;9.872;2023-07-22T15:01:25;19.70;99.90
13806;DHT22;6974;53.606;9.872;2023-07-22T15:03:53;19.60;99.90
13806;DHT22;6974;53.606;9.872;2023-07-22T15:06:21;19.60;99.90
13806;DHT22;6974;53.606;9.872;2023-07-22T15:08:48;19.60;99.90
13806;DHT22;6974;53.606;9.872;2023-07-22T15:11:15;19.60;99.90
13806;DHT22;6974;53.606;9.872;2023-07-22T15:13:42;19.60;99.90
13806;DHT22;6974;53.606;9.872;2023-07-22T15:16:09;19.60;99.90
13806;DHT22;6974;53.606;9.872;2023-07-22T15:18:36;19.60;99.90
13806;DHT22;6974;53.606;9.872;2023-07-22T15:21:05;19.60;99.90
13806;DHT22;6974;53.606;9.872;2023-07-22T15:23:32;19.60;99.90
13806;DHT22;6974;53.606;9.872;2023-07-22T15:25:59;19.60;99.90
13806;DHT22;6974;53.606;9.872;2023-07-22T15:28:26;19.60;99.90
13806;DHT22;6974;53.606;9.872;2023-07-22T15:30:54;19.50;99.90
13806;DHT22;6974;53.606;9.872;2023-07-22T15:33:20;19.50;99.90
13806;DHT22;6974;53.606;9.872;2023-07-22T15:35:48;19.40;99.90
13806;DHT22;6974;53.606;9.872;2023-07-22T15:38:17;19.40;99.90
13806;DHT22;6974;53.606;9.872;2023-07-22T15:40:44;19.30;99.90
13806;DHT22;6974;53.606;9.872;2023-07-22T15:43:12;19.30;99.90
13806;DHT22;6974;53.606;9.872;2023-07-22T15:45:40;19.30;99.90
13806;DHT22;6974;53.606;9.872;2023-07-22T15:48:07;19.20;99.90
13806;DHT22;6974;53.606;9.872;2023-07-22T15:50:34;19.20;99.90
13806;DHT22;6974;53.606;9.872;2023-07-22T15:53:01;19.10;99.90